Time;durP1;ratioP1;P1;durP2;ratioP2;P2;SDS_P1;SDS_P2;PMS_P1;PMS_P2;Temp;Humidity;BMP_temperature;BMP_pressure;BME280_temperature;BME280_humidity;BME280_pressure;Samples;Min_cycle;Max_cycle;Signal;HPM_P1;HPM_P2
2023/09/19 00:00:58;;;;;;;20.75;2.92;;;14.30;99.90;;;;;;5050823;28;20165;-76
2023/09/19 00:03:25;;;;;;;14.95;2.58;;;14.30;99.90;;;;;;5033159;28;20201;-76
2023/09/19 00:05:50;;;;;;;21.88;2.47;;;14.30;99.90;;;;;;5033045;28;20273;-76
2023/09/19 00:08:16;;;;;;;16.85;2.70;;;14.30;99.90;;;;;;5032478;28;20198;-76
2023/09/19 00:10:42;;;;;;;15.40;3.08;;;14.20;99.90;;;;;;5030566;28;20186;-77
2023/09/19 00:13:12;;;;;;;20.02;2.58;;;14.30;99.90;;;;;;5032955;28;20173;-76
2023/09/19 00:15:40;;;;;;;13.23;1.98;;;14.30;99.90;;;;;;5031068;28;20221;-75
2023/09/19 00:18:07;;;;;;;19.23;3.03;;;14.40;99.90;;;;;;5032332;28;20166;-74
2023/09/19 00:20:35;;;;;;;13.27;2.47;;;14.30;99.90;;;;;;5032574;28;20178;-75
2023/09/19 00:23:02;;;;;;;14.35;1.98;;;14.30;99.90;;;;;;5014581;28;20177;-75
2023/09/19 00:25:28;;;;;;;17.17;2.47;;;14.40;99.90;;;;;;5032485;28;20178;-75
2023/09/19 00:27:54;;;;;;;12.95;1.80;;;14.30;99.90;;;;;;5031953;28;20233;-74
2023/09/19 00:30:21;;;;;;;18.42;2.38;;;14.20;99.90;;;;;;5032358;28;20205;-75
2023/09/19 00:32:48;;;;;;;10.98;1.85;;;14.20;99.90;;;;;;5032178;28;20542;-74
2023/09/19 00:35:16;;;;;;;12.23;2.28;;;13.90;99.90;;;;;;5031999;28;20294;-75
2023/09/19 00:37:42;;;;;;;11.07;1.83;;;13.90;99.90;;;;;;5032054;28;20174;-74
2023/09/19 00:40:12;;;;;;;12.70;2.30;;;13.60;99.90;;;;;;5031839;28;20196;-73
2023/09/19 00:42:42;;;;;;;11.48;2.30;;;13.60;99.90;;;;;;5014169;28;20181;-73
2023/09/19 00:45:11;;;;;;;12.17;2.53;;;13.50;99.90;;;;;;5032136;28;20169;-73
2023/09/19 00:47:49;;;;;;;13.90;2.28;;;13.60;99.90;;;;;;5031872;28;20180;-74
2023/09/19 00:50:21;;;;;;;10.53;2.07;;;13.50;99.90;;;;;;5031728;28;20239;-74
2023/09/19 00:52:50;;;;;;;18.43;2.40;;;13.40;99.90;;;;;;5031716;28;20176;-74
2023/09/19 00:55:19;;;;;;;10.87;2.23;;;13.50;99.90;;;;;;5031668;28;20228;-74
2023/09/19 00:57:45;;;;;;;11.47;1.77;;;13.50;99.90;;;;;;5031234;28;20185;-74
2023/09/19 01:00:15;;;;;;;13.47;2.17;;;13.50;99.90;;;;;;5031231;28;20178;-74
2023/09/19 01:02:43;;;;;;;9.23;1.90;;;13.30;99.90;;;;;;5012078;28;20185;-74
2023/09/19 01:05:09;;;;;;;11.30;1.80;;;13.60;99.90;;;;;;5051638;28;20180;-75
2023/09/19 01:07:36;;;;;;;13.03;1.90;;;13.60;99.90;;;;;;5035427;28;20182;-74
2023/09/19 01:10:16;;;;;;;11.97;2.23;;;13.60;99.90;;;;;;5014019;28;20511;-74
2023/09/19 01:13:08;;;;;;;9.90;2.00;;;13.20;99.90;;;;;;5031589;28;20656;-76
2023/09/19 01:15:40;;;;;;;10.40;1.60;;;13.30;99.90;;;;;;5031453;28;20292;-74
2023/09/19 01:18:24;;;;;;;14.77;2.03;;;13.20;99.90;;;;;;5033639;28;20195;-74
2023/09/19 01:21:11;;;;;;;13.23;1.40;;;13.60;99.90;;;;;;5051275;28;20201;-73
2023/09/19 01:24:07;;;;;;;11.30;1.87;;;13.60;99.90;;;;;;5051435;28;20205;-74
2023/09/19 01:26:51;;;;;;;11.83;2.00;;;13.60;99.90;;;;;;5051290;28;20563;-76
2023/09/19 01:29:44;;;;;;;8.00;1.27;;;13.60;99.90;;;;;;5051143;28;20173;-75
2023/09/19 01:32:13;;;;;;;11.47;2.00;;;13.60;99.90;;;;;;5051249;28;20507;-74
2023/09/19 01:34:48;;;;;;;15.03;1.93;;;13.40;99.90;;;;;;5050893;28;20185;-74
2023/09/19 01:37:18;;;;;;;8.83;1.33;;;13.60;99.90;;;;;;5051038;28;20264;-73
2023/09/19 01:39:44;;;;;;;8.87;1.40;;;13.50;99.90;;;;;;5051222;28;20177;-73
2023/09/19 01:42:22;;;;;;;9.43;1.90;;;13.50;99.90;;;;;;5051103;28;20242;-74
2023/09/19 01:44:48;;;;;;;12.07;1.70;;;13.80;99.90;;;;;;5051027;28;20184;-74
2023/09/19 01:47:36;;;;;;;12.57;1.80;;;13.60;99.90;;;;;;5050966;28;20161;-74
2023/09/19 01:50:27;;;;;;;8.47;1.80;;;14.00;99.90;;;;;;5033045;28;20503;-74
2023/09/19 01:53:09;;;;;;;8.87;1.50;;;13.40;99.90;;;;;;5050883;28;20173;-73
2023/09/19 01:55:40;;;;;;;10.10;1.93;;;13.40;99.90;;;;;;5040069;28;20209;-74
2023/09/19 01:58:39;;;;;;;10.40;1.57;;;13.40;99.90;;;;;;5031037;28;20256;-74
2023/09/19 02:01:08;;;;;;;12.80;2.33;;;13.50;99.90;;;;;;5019742;28;20186;-74
2023/09/19 02:03:36;;;;;;;11.23;1.60;;;13.60;99.90;;;;;;5031020;28;20257;-74
2023/09/19 02:06:03;;;;;;;11.27;2.23;;;13.60;99.90;;;;;;5030749;28;20685;-74
2023/09/19 02:08:31;;;;;;;8.63;2.13;;;;;;;;;;5031083;28;20182;-74
2023/09/19 02:10:57;;;;;;;16.07;2.03;;;;;;;;;;5030829;28;20170;-74
2023/09/19 02:13:27;;;;;;;10.33;1.73;;;13.60;99.90;;;;;;5030921;28;20169;-75
2023/09/19 02:15:53;;;;;;;9.70;1.70;;;13.60;99.90;;;;;;5030681;28;20217;-75
2023/09/19 02:18:19;;;;;;;12.07;1.83;;;;;;;;;;5030613;28;20181;-76
2023/09/19 02:20:46;;;;;;;8.30;1.57;;;;;;;;;;5030955;28;20205;-74
2023/09/19 02:23:12;;;;;;;10.23;2.00;;;13.50;99.90;;;;;;5030750;28;20169;-74
2023/09/19 02:25:40;;;;;;;9.70;1.50;;;;;;;;;;5029289;28;20647;-74
2023/09/19 02:28:06;;;;;;;14.20;2.27;;;;;;;;;;5030499;28;20213;-73
2023/09/19 02:30:32;;;;;;;13.47;1.67;;;;;;;;;;5030670;28;20185;-73
2023/09/19 02:33:01;;;;;;;7.03;1.50;;;13.80;99.90;;;;;;5030689;28;20196;-74
2023/09/19 02:35:27;;;;;;;10.97;1.60;;;13.60;99.90;;;;;;5030777;28;20282;-74
2023/09/19 02:37:53;;;;;;;15.47;1.80;;;14.00;99.90;;;;;;5030456;28;20184;-75
2023/09/19 02:40:19;;;;;;;12.97;2.07;;;;;;;;;;5030568;28;20636;-74
2023/09/19 02:42:49;;;;;;;9.33;1.77;;;13.90;99.90;;;;;;5030571;28;20170;-74
2023/09/19 02:45:18;;;;;;;9.07;1.37;;;13.80;99.90;;;;;;5030428;28;20205;-74
2023/09/19 02:47:44;;;;;;;7.85;1.40;;;;;;;;;;5030429;28;20174;-73
2023/09/19 02:50:15;;;;;;;14.63;1.85;;;13.90;99.90;;;;;;5030666;28;20177;-74
2023/09/19 02:52:45;;;;;;;9.55;1.85;;;13.90;99.90;;;;;;5030409;28;20860;-74
2023/09/19 02:55:14;;;;;;;9.00;1.88;;;13.90;99.90;;;;;;5030430;28;20229;-74
2023/09/19 02:57:43;;;;;;;13.27;2.10;;;;;;;;;;5030261;28;20178;-74
2023/09/19 03:00:10;;;;;;;7.85;1.35;;;14.10;99.90;;;;;;5028197;28;20178;-74
2023/09/19 03:02:37;;;;;;;9.47;1.57;;;14.10;99.90;;;;;;5030225;28;20246;-74
2023/09/19 03:05:04;;;;;;;10.63;1.52;;;14.10;99.90;;;;;;5030377;28;20174;-74
2023/09/19 03:07:30;;;;;;;11.27;1.30;;;;;;;;;;5031551;28;20239;-74
2023/09/19 03:09:56;;;;;;;6.32;1.25;;;;;;;;;;5033700;28;20688;-74
2023/09/19 03:12:22;;;;;;;14.40;1.98;;;;;;;;;;5015714;28;20219;-74
2023/09/19 03:14:48;;;;;;;8.43;1.60;;;14.20;99.90;;;;;;5040320;28;20177;-73
2023/09/19 03:17:14;;;;;;;11.85;1.67;;;14.00;99.90;;;;;;5045900;28;20186;-74
2023/09/19 03:19:40;;;;;;;6.90;1.20;;;14.30;99.90;;;;;;5033448;28;20243;-74
2023/09/19 03:22:06;;;;;;;10.38;1.98;;;14.20;99.90;;;;;;5033485;28;20644;-73
2023/09/19 03:24:33;;;;;;;7.78;1.50;;;14.40;99.90;;;;;;5033457;28;20174;-74
2023/09/19 03:26:59;;;;;;;13.20;1.48;;;;;;;;;;5015931;28;20226;-74
2023/09/19 03:29:25;;;;;;;9.97;1.77;;;;;;;;;;5033173;28;20166;-74
2023/09/19 03:31:51;;;;;;;9.80;1.63;;;14.30;99.90;;;;;;5033327;28;20174;-74
2023/09/19 03:34:17;;;;;;;5.72;1.00;;;;;;;;;;5032717;28;20174;-75
2023/09/19 03:36:42;;;;;;;11.82;1.23;;;14.40;99.90;;;;;;5033292;28;20636;-74
2023/09/19 03:39:08;;;;;;;11.88;1.40;;;14.20;99.90;;;;;;5033249;28;20173;-75
2023/09/19 03:41:36;;;;;;;9.13;1.25;;;14.40;99.90;;;;;;5033037;28;20581;-74
2023/09/19 03:44:02;;;;;;;7.75;1.50;;;14.30;99.90;;;;;;5032971;28;20166;-74
2023/09/19 03:46:28;;;;;;;12.13;1.65;;;14.40;99.90;;;;;;5031304;28;20170;-74
2023/09/19 03:48:54;;;;;;;7.60;1.10;;;14.30;99.90;;;;;;5032388;28;20170;-74
2023/09/19 03:51:20;;;;;;;6.35;1.27;;;14.50;99.90;;;;;;5032839;28;20174;-74
2023/09/19 03:53:46;;;;;;;7.50;1.30;;;14.60;99.90;;;;;;5032500;28;20170;-75
2023/09/19 03:56:12;;;;;;;7.30;1.40;;;14.40;99.90;;;;;;5032365;28;20669;-74
2023/09/19 03:58:39;;;;;;;7.60;1.27;;;;;;;;;;5032804;28;20265;-74
2023/09/19 04:01:06;;;;;;;8.07;1.65;;;;;;;;;;5032790;28;20252;-74
2023/09/19 04:03:46;;;;;;;6.70;1.10;;;14.70;99.90;;;;;;5032776;28;20185;-75
2023/09/19 04:06:15;;;;;;;10.38;1.42;;;15.20;99.90;;;;;;5026643;28;20209;-76
2023/09/19 04:08:41;;;;;;;9.35;0.63;;;;;;;;;;5032374;28;20185;-75
2023/09/19 04:11:08;;;;;;;5.50;0.85;;;;;;;;;;5032492;28;20182;-75
2023/09/19 04:13:33;;;;;;;11.55;1.50;;;14.60;99.90;;;;;;5032642;28;20261;-75
2023/09/19 04:15:59;;;;;;;7.00;1.35;;;14.60;99.90;;;;;;5032264;28;20304;-75
2023/09/19 04:18:25;;;;;;;9.77;1.10;;;;;;;;;;5014086;28;20202;-75
2023/09/19 04:20:52;;;;;;;9.80;1.30;;;;;;;;;;5037102;28;20180;-75
2023/09/19 04:23:19;;;;;;;4.32;0.60;;;14.80;99.90;;;;;;5052240;28;20197;-75
2023/09/19 04:25:45;;;;;;;9.07;1.02;;;;;;;;;;5040411;28;20189;-76
2023/09/19 04:28:11;;;;;;;4.28;1.02;;;;;;;;;;5032293;28;20482;-75
2023/09/19 04:30:40;;;;;;;3.67;1.02;;;14.50;99.90;;;;;;5032410;28;20191;-75
2023/09/19 04:33:06;;;;;;;6.30;0.80;;;14.40;99.90;;;;;;5032542;28;20181;-77
2023/09/19 04:35:32;;;;;;;6.07;1.13;;;;;;;;;;5032215;28;20218;-76
2023/09/19 04:37:58;;;;;;;7.65;1.10;;;;;;;;;;5044129;28;20173;-76
2023/09/19 04:40:26;;;;;;;7.20;1.15;;;13.90;99.90;;;;;;5051983;28;20185;-76
2023/09/19 04:42:58;;;;;;;10.05;1.08;;;13.90;99.90;;;;;;5052104;28;20267;-75
2023/09/19 04:45:28;;;;;;;7.65;1.38;;;14.10;99.90;;;;;;5034211;28;20169;-75
2023/09/19 04:47:54;;;;;;;3.00;0.67;;;14.00;99.90;;;;;;5051822;28;20188;-75
2023/09/19 04:50:21;;;;;;;7.60;0.88;;;13.90;99.90;;;;;;5051965;28;20165;-75
2023/09/19 04:52:50;;;;;;;3.15;0.90;;;14.80;99.90;;;;;;5051698;28;20161;-75
2023/09/19 04:55:17;;;;;;;3.13;0.77;;;14.00;99.90;;;;;;5051911;28;20221;-75
2023/09/19 04:57:47;;;;;;;8.25;1.08;;;14.20;99.90;;;;;;5051854;28;20173;-75
2023/09/19 05:00:24;;;;;;;6.38;1.00;;;14.20;99.90;;;;;;5051908;28;20177;-74
2023/09/19 05:02:51;;;;;;;5.32;0.90;;;14.30;99.90;;;;;;5051630;28;20173;-75
2023/09/19 05:05:18;;;;;;;5.68;0.77;;;14.50;99.90;;;;;;5051925;28;20173;-75
2023/09/19 05:07:45;;;;;;;6.53;0.87;;;14.40;99.90;;;;;;5051774;28;20184;-77
2023/09/19 05:10:12;;;;;;;6.53;0.60;;;14.30;99.90;;;;;;5051477;28;20231;-76
2023/09/19 05:12:38;;;;;;;6.45;0.70;;;14.40;99.90;;;;;;5051646;28;20264;-76
2023/09/19 05:15:04;;;;;;;7.20;1.07;;;14.50;99.90;;;;;;5034587;28;20277;-76
2023/09/19 05:17:31;;;;;;;4.72;1.05;;;14.40;99.90;;;;;;5030341;28;20177;-76
2023/09/19 05:19:58;;;;;;;4.60;0.70;;;14.30;99.90;;;;;;5030371;28;20178;-75
2023/09/19 05:22:26;;;;;;;3.50;0.60;;;14.40;99.90;;;;;;5031293;28;20181;-75
2023/09/19 05:24:52;;;;;;;2.78;0.60;;;;;;;;;;5031490;28;20264;-75
2023/09/19 05:27:20;;;;;;;4.70;1.08;;;14.70;99.90;;;;;;5030995;28;20253;-75
2023/09/19 05:29:46;;;;;;;3.45;0.93;;;;;;;;;;5030209;28;20695;-75
2023/09/19 05:32:12;;;;;;;4.07;0.70;;;14.40;99.90;;;;;;5030765;28;20271;-74
2023/09/19 05:34:38;;;;;;;3.97;0.60;;;14.50;99.90;;;;;;5030939;28;20658;-74
2023/09/19 05:37:07;;;;;;;5.47;0.95;;;14.60;99.90;;;;;;5031044;28;20186;-75
2023/09/19 05:39:33;;;;;;;2.65;0.50;;;;;;;;;;5030785;28;20648;-76
2023/09/19 05:42:00;;;;;;;3.10;0.65;;;14.80;99.90;;;;;;5044725;28;20560;-76
2023/09/19 05:44:25;;;;;;;3.50;0.90;;;14.90;99.90;;;;;;5050476;28;20170;-76
2023/09/19 05:46:51;;;;;;;5.05;0.98;;;14.80;99.90;;;;;;5031157;28;20192;-75
2023/09/19 05:49:17;;;;;;;7.30;1.25;;;14.90;99.90;;;;;;5031143;28;20629;-76
2023/09/19 05:51:43;;;;;;;3.83;0.88;;;14.80;99.90;;;;;;5030931;28;20177;-75
2023/09/19 05:54:10;;;;;;;4.13;0.88;;;14.80;99.90;;;;;;5031011;28;20257;-76
2023/09/19 05:56:36;;;;;;;4.10;1.23;;;14.90;99.90;;;;;;5031268;28;20220;-75
2023/09/19 05:59:03;;;;;;;8.52;1.30;;;15.10;99.90;;;;;;5051233;28;20224;-76
2023/09/19 06:01:30;;;;;;;7.00;1.00;;;15.00;99.90;;;;;;5051049;28;20175;-76
2023/09/19 06:03:56;;;;;;;6.95;1.42;;;15.00;99.90;;;;;;5050957;28;20177;-78
2023/09/19 06:06:23;;;;;;;8.02;1.40;;;15.00;99.90;;;;;;5050719;28;20173;-75
2023/09/19 06:08:50;;;;;;;9.38;1.63;;;;;;;;;;5050864;28;20302;-74
2023/09/19 06:11:16;;;;;;;6.13;1.08;;;15.30;99.90;;;;;;5051006;28;20165;-76
2023/09/19 06:13:41;;;;;;;4.90;1.27;;;15.20;99.90;;;;;;5050703;28;20241;-76
2023/09/19 06:16:09;;;;;;;7.65;1.55;;;;;;;;;;5050647;28;20254;-74
2023/09/19 06:18:36;;;;;;;6.38;1.58;;;14.90;99.90;;;;;;5051337;28;20180;-74
2023/09/19 06:21:05;;;;;;;7.13;1.88;;;15.20;99.90;;;;;;5052289;28;20176;-74
2023/09/19 06:23:31;;;;;;;9.80;2.03;;;15.20;99.90;;;;;;5042562;28;20181;-80
2023/09/19 06:25:57;;;;;;;8.63;1.77;;;15.30;99.90;;;;;;5030493;28;20213;-74
2023/09/19 06:28:24;;;;;;;8.20;1.80;;;;;;;;;;5029035;28;20177;-77
2023/09/19 06:30:49;;;;;;;7.38;1.17;;;15.10;99.90;;;;;;5028500;28;20205;-76
2023/09/19 06:33:15;;;;;;;12.77;1.83;;;15.30;99.90;;;;;;5030693;28;20212;-73
2023/09/19 06:35:41;;;;;;;5.97;1.45;;;15.20;99.90;;;;;;5029981;28;20321;-72
2023/09/19 06:38:07;;;;;;;8.13;1.48;;;15.40;99.90;;;;;;5029809;28;20204;-72
2023/09/19 06:40:34;;;;;;;8.55;1.80;;;15.20;99.90;;;;;;5033423;28;20208;-74
2023/09/19 06:43:02;;;;;;;6.95;1.70;;;15.20;99.90;;;;;;5037529;28;20607;-74
2023/09/19 06:45:28;;;;;;;7.18;1.15;;;15.20;99.90;;;;;;5044312;28;20224;-78
2023/09/19 06:47:57;;;;;;;7.35;1.70;;;15.70;99.90;;;;;;5054142;28;20177;-76
2023/09/19 06:50:23;;;;;;;8.20;1.80;;;15.40;99.90;;;;;;5054184;28;20181;-75
2023/09/19 06:52:51;;;;;;;9.65;2.00;;;15.60;99.90;;;;;;5041796;28;20219;-77
2023/09/19 06:55:19;;;;;;;7.70;1.85;;;15.50;99.90;;;;;;5033906;28;20236;-76
2023/09/19 06:57:45;;;;;;;2.97;0.85;;;15.40;99.90;;;;;;5033445;28;20809;-75
2023/09/19 07:00:18;;;;;;;9.77;1.98;;;15.50;99.90;;;;;;5016094;28;20262;-76
2023/09/19 07:02:44;;;;;;;11.40;1.90;;;15.50;99.90;;;;;;5033342;28;20656;-77
2023/09/19 07:05:10;;;;;;;10.93;1.92;;;15.70;99.90;;;;;;5033933;28;20178;-76
2023/09/19 07:07:36;;;;;;;7.70;2.53;;;;;;;;;;5033401;28;20637;-81
2023/09/19 07:10:05;;;;;;;14.40;2.63;;;15.60;99.90;;;;;;5015845;28;20170;-76
2023/09/19 07:12:32;;;;;;;9.57;2.30;;;15.70;99.90;;;;;;5033127;28;20170;-77
2023/09/19 07:14:58;;;;;;;12.27;2.10;;;15.90;99.90;;;;;;5034086;28;20182;-76
2023/09/19 07:17:23;;;;;;;11.43;2.05;;;16.00;99.90;;;;;;5020124;28;20173;-80
2023/09/19 07:19:50;;;;;;;12.38;2.60;;;15.60;99.90;;;;;;5053866;28;20165;-81
2023/09/19 07:22:16;;;;;;;10.93;2.45;;;16.20;99.90;;;;;;5053661;28;20177;-78
2023/09/19 07:24:42;;;;;;;5.00;2.00;;;16.00;99.90;;;;;;5054079;28;20566;-77
2023/09/19 07:27:08;;;;;;;8.52;2.38;;;15.90;99.90;;;;;;5053412;28;20224;-77
2023/09/19 07:29:34;;;;;;;13.63;2.80;;;15.90;99.90;;;;;;5039725;28;20166;-76
2023/09/19 07:32:00;;;;;;;11.23;2.50;;;;;;;;;;5033460;28;20182;-77
2023/09/19 07:34:26;;;;;;;13.63;2.70;;;15.90;99.90;;;;;;5033641;28;20221;-74
2023/09/19 07:36:51;;;;;;;11.90;2.55;;;16.00;99.90;;;;;;5032427;28;20233;-76
2023/09/19 07:39:17;;;;;;;20.30;3.65;;;16.10;99.90;;;;;;5036991;28;20208;-76
2023/09/19 07:41:43;;;;;;;11.13;2.72;;;;;;;;;;5053213;28;20252;-73
2023/09/19 07:44:11;;;;;;;12.93;2.80;;;16.20;99.90;;;;;;5042488;28;20201;-75
2023/09/19 07:46:37;;;;;;;17.77;3.00;;;16.30;99.90;;;;;;5020086;28;20523;-74
2023/09/19 07:49:03;;;;;;;16.10;3.35;;;;;;;;;;5032776;28;20173;-75
2023/09/19 07:51:29;;;;;;;4.57;1.42;;;16.30;99.90;;;;;;5015401;28;20265;-75
2023/09/19 07:53:54;;;;;;;16.00;3.45;;;16.20;99.90;;;;;;5032201;28;20258;-74
2023/09/19 07:56:20;;;;;;;13.80;3.15;;;16.30;99.90;;;;;;5032399;28;20210;-73
2023/09/19 07:58:46;;;;;;;17.88;3.55;;;16.30;99.90;;;;;;5032501;28;20231;-75
2023/09/19 08:01:13;;;;;;;10.93;2.60;;;16.30;99.90;;;;;;5032712;28;20182;-74
2023/09/19 08:03:40;;;;;;;16.67;2.97;;;16.40;99.90;;;;;;5032139;28;20178;-74
2023/09/19 08:06:07;;;;;;;15.23;2.50;;;16.50;99.90;;;;;;5032812;28;20203;-73
2023/09/19 08:08:39;;;;;;;18.98;3.10;;;16.50;99.90;;;;;;5032683;28;20224;-73
2023/09/19 08:11:12;;;;;;;12.70;3.38;;;16.70;99.90;;;;;;5032787;28;20170;-73
2023/09/19 08:13:43;;;;;;;22.50;4.03;;;16.70;99.90;;;;;;5032376;28;20205;-75
2023/09/19 08:16:12;;;;;;;9.10;2.00;;;16.70;99.90;;;;;;5032146;28;20559;-75
2023/09/19 08:18:40;;;;;;;13.32;3.08;;;16.70;99.90;;;;;;5032092;28;20253;-75
2023/09/19 08:21:10;;;;;;;15.10;3.13;;;17.00;99.90;;;;;;5014680;28;20182;-75
2023/09/19 08:23:36;;;;;;;11.82;2.88;;;;;;;;;;5031406;28;20167;-73
2023/09/19 08:26:07;;;;;;;23.50;3.88;;;16.70;99.90;;;;;;5031986;28;20863;-76
2023/09/19 08:28:36;;;;;;;22.52;3.92;;;16.80;99.90;;;;;;5032060;28;20185;-76
2023/09/19 08:31:06;;;;;;;14.52;3.10;;;16.80;99.90;;;;;;5014635;28;20170;-75
2023/09/19 08:33:35;;;;;;;13.63;3.25;;;17.00;99.90;;;;;;5031977;28;20178;-75
2023/09/19 08:36:04;;;;;;;14.68;3.40;;;16.40;99.90;;;;;;5032438;28;20800;-82
2023/09/19 08:38:33;;;;;;;13.30;2.63;;;16.40;99.90;;;;;;5031482;28;20702;-82
2023/09/19 08:41:00;;;;;;;18.48;3.40;;;16.40;99.90;;;;;;5031903;28;20640;-80
2023/09/19 08:43:26;;;;;;;15.93;3.50;;;16.00;99.90;;;;;;5036176;28;20196;-79
2023/09/19 08:46:19;;;;;;;11.82;3.38;;;16.20;99.90;;;;;;5033845;28;20177;-77
2023/09/19 08:49:02;;;;;;;9.23;2.55;;;16.10;99.90;;;;;;5028250;28;20267;-78
2023/09/19 08:51:39;;;;;;;18.77;2.90;;;16.00;99.90;;;;;;5014171;28;20201;-76
2023/09/19 08:54:09;;;;;;;11.57;2.42;;;16.10;99.90;;;;;;5031612;28;20174;-76
2023/09/19 08:56:39;;;;;;;13.60;2.70;;;16.10;99.90;;;;;;5032071;28;20255;-78
2023/09/19 08:59:09;;;;;;;8.25;2.15;;;16.20;99.90;;;;;;5032182;28;20213;-77
2023/09/19 09:01:35;;;;;;;10.73;2.13;;;16.30;99.90;;;;;;5031964;28;20174;-76
2023/09/19 09:04:02;;;;;;;6.47;1.52;;;16.30;99.90;;;;;;5030770;28;20170;-76
2023/09/19 09:06:29;;;;;;;8.82;2.45;;;16.30;99.90;;;;;;5031020;28;20212;-77
2023/09/19 09:08:55;;;;;;;8.55;1.90;;;16.10;99.90;;;;;;5029468;28;20213;-77
2023/09/19 09:11:23;;;;;;;8.27;2.10;;;16.30;99.90;;;;;;5025645;28;20644;-77
2023/09/19 09:13:49;;;;;;;7.75;1.63;;;16.40;99.90;;;;;;5035610;28;20655;-80
2023/09/19 09:16:18;;;;;;;12.20;2.58;;;16.70;99.90;;;;;;5031183;28;20217;-77
2023/09/19 09:18:52;;;;;;;11.27;2.60;;;16.30;99.90;;;;;;5029249;28;20178;-83
2023/09/19 09:21:18;;;;;;;13.70;2.42;;;16.50;99.90;;;;;;5031035;28;20181;-75
2023/09/19 09:23:44;;;;;;;8.50;2.55;;;16.60;99.90;;;;;;5031462;28;20169;-78
2023/09/19 09:26:10;;;;;;;8.82;1.92;;;;;;;;;;5031297;28;20300;-81
2023/09/19 09:28:44;;;;;;;9.15;2.38;;;16.60;99.90;;;;;;5031453;28;20641;-79
2023/09/19 09:31:23;;;;;;;4.10;1.27;;;16.70;99.90;;;;;;5031377;28;20243;-77
2023/09/19 09:33:56;;;;;;;7.50;2.00;;;16.70;99.90;;;;;;5031428;28;20170;-77
2023/09/19 09:36:41;;;;;;;7.43;1.85;;;16.50;99.90;;;;;;5031076;28;20283;-76
2023/09/19 09:39:18;;;;;;;5.68;1.70;;;16.70;99.90;;;;;;5011376;28;20229;-77
2023/09/19 09:41:43;;;;;;;6.35;1.92;;;16.70;99.90;;;;;;5011320;28;20253;-77
2023/09/19 09:44:15;;;;;;;7.68;1.90;;;17.10;99.90;;;;;;5011044;28;20645;-77
2023/09/19 09:49:32;;;;;;;5.78;1.88;;;17.00;99.90;;;;;;5012731;28;20173;-79
2023/09/19 09:52:18;;;;;;;4.45;1.75;;;17.10;99.90;;;;;;5023166;28;20257;-74
2023/09/19 09:55:07;;;;;;;4.93;1.50;;;17.20;99.90;;;;;;5012642;28;20170;-79
2023/09/19 09:57:34;;;;;;;4.85;1.70;;;;;;;;;;5030209;28;20703;-81
2023/09/19 10:00:16;;;;;;;8.05;1.20;;;17.20;99.90;;;;;;5030408;28;20698;-75
2023/09/19 10:02:46;;;;;;;5.68;1.70;;;17.10;99.90;;;;;;5030359;28;20178;-80
2023/09/19 10:05:28;;;;;;;4.70;1.17;;;16.90;99.90;;;;;;5030189;28;20236;-76
2023/09/19 10:08:00;;;;;;;4.72;1.13;;;16.70;99.90;;;;;;5050765;28;20173;-77
2023/09/19 10:13:13;;;;;;;6.03;1.38;;;16.70;99.90;;;;;;5030298;28;20177;-78
2023/09/19 10:15:42;;;;;;;4.57;1.05;;;16.50;99.90;;;;;;5031531;28;20225;-77
2023/09/19 10:18:11;;;;;;;3.15;1.15;;;16.40;99.90;;;;;;5035219;28;20174;-79
2023/09/19 10:20:41;;;;;;;4.22;1.13;;;16.10;99.90;;;;;;5016772;28;20591;-76
2023/09/19 10:23:10;;;;;;;6.75;1.08;;;16.60;99.90;;;;;;5039640;28;20204;-76
2023/09/19 10:25:38;;;;;;;3.55;1.02;;;16.60;99.90;;;;;;5034028;28;20208;-75
2023/09/19 10:28:10;;;;;;;3.53;0.65;;;16.60;99.90;;;;;;5033193;28;20714;-75
2023/09/19 10:30:48;;;;;;;3.45;1.10;;;16.60;99.90;;;;;;5051813;28;20200;-77
2023/09/19 10:33:15;;;;;;;5.03;1.13;;;16.70;99.90;;;;;;5033955;28;20173;-79
2023/09/19 10:35:45;;;;;;;5.97;1.13;;;16.70;99.90;;;;;;5035081;28;20300;-81
2023/09/19 10:38:13;;;;;;;1.58;0.60;;;16.70;99.90;;;;;;5034082;28;20209;-81
2023/09/19 10:40:46;;;;;;;1.42;0.60;;;16.90;99.90;;;;;;5041182;28;20200;-75
2023/09/19 10:43:19;;;;;;;2.97;0.70;;;17.10;99.90;;;;;;5027691;28;20640;-76
2023/09/19 10:45:49;;;;;;;1.05;0.50;;;16.90;99.90;;;;;;5032726;28;20236;-78
2023/09/19 10:48:19;;;;;;;1.05;0.28;;;16.90;99.90;;;;;;5033837;28;20201;-77
2023/09/19 10:51:05;;;;;;;2.05;0.50;;;16.90;99.90;;;;;;5033325;28;20189;-75
2023/09/19 10:53:46;;;;;;;1.25;0.40;;;17.30;99.90;;;;;;5028556;28;20217;-73
2023/09/19 10:56:32;;;;;;;2.50;0.50;;;17.20;99.90;;;;;;5044738;28;20288;-72
2023/09/19 10:59:18;;;;;;;1.85;0.50;;;17.00;99.90;;;;;;5033604;28;20628;-74
2023/09/19 11:01:52;;;;;;;0.93;0.45;;;17.20;99.90;;;;;;5033517;28;20173;-73
2023/09/19 11:04:35;;;;;;;2.00;0.40;;;17.20;99.90;;;;;;5033630;28;20231;-74
2023/09/19 11:07:11;;;;;;;0.77;0.30;;;17.10;99.90;;;;;;5033854;28;20212;-73
2023/09/19 11:09:53;;;;;;;0.52;0.30;;;17.20;99.90;;;;;;5033597;28;20181;-75
2023/09/19 11:12:31;;;;;;;0.82;0.32;;;17.30;99.90;;;;;;5033693;28;20177;-74
2023/09/19 11:15:04;;;;;;;1.25;0.38;;;17.30;99.90;;;;;;5016249;28;20204;-75
2023/09/19 11:17:35;;;;;;;0.70;0.40;;;17.20;99.90;;;;;;5034239;28;20170;-77
2023/09/19 11:20:15;;;;;;;1.20;0.38;;;17.10;99.90;;;;;;5016165;28;20197;-74
2023/09/19 11:22:53;;;;;;;1.25;0.30;;;17.10;99.90;;;;;;5049404;28;20268;-75
2023/09/19 11:25:34;;;;;;;0.52;0.20;;;17.10;99.90;;;;;;5053787;28;20192;-74
2023/09/19 11:28:07;;;;;;;1.95;0.20;;;17.10;99.90;;;;;;5052332;28;20250;-74
2023/09/19 11:30:33;;;;;;;0.63;0.25;;;17.10;99.90;;;;;;5038908;28;20174;-74
2023/09/19 11:33:23;;;;;;;3.10;0.30;;;17.40;99.90;;;;;;5030967;28;20178;-74
2023/09/19 11:36:05;;;;;;;0.70;0.25;;;17.20;99.90;;;;;;5011628;28;20214;-73
2023/09/19 11:38:43;;;;;;;0.63;0.20;;;17.00;99.90;;;;;;5029650;28;20173;-78
2023/09/19 11:41:31;;;;;;;0.70;0.20;;;17.10;99.90;;;;;;5032508;28;20173;-74
2023/09/19 11:44:03;;;;;;;0.85;0.30;;;17.30;99.90;;;;;;5012849;28;20174;-74
2023/09/19 11:46:51;;;;;;;0.45;0.20;;;17.30;99.90;;;;;;5017481;28;20178;-73
2023/09/19 11:49:21;;;;;;;1.58;0.40;;;17.30;99.90;;;;;;5032930;28;20192;-73
2023/09/19 11:51:51;;;;;;;1.55;0.43;;;17.30;99.90;;;;;;5033230;28;20250;-73
2023/09/19 11:54:18;;;;;;;5.68;0.35;;;17.40;99.90;;;;;;5010701;28;20182;-73
2023/09/19 11:56:45;;;;;;;1.10;0.40;;;17.40;99.90;;;;;;5032641;28;20297;-74
2023/09/19 11:59:21;;;;;;;2.95;0.45;;;17.40;99.90;;;;;;5032855;28;20174;-75
2023/09/19 12:01:57;;;;;;;1.95;0.40;;;17.30;99.90;;;;;;5032598;28;20176;-74
2023/09/19 12:04:37;;;;;;;3.17;0.60;;;17.30;99.90;;;;;;5015357;28;20565;-74
2023/09/19 12:07:05;;;;;;;2.90;0.77;;;17.30;99.90;;;;;;5032145;28;20668;-74
2023/09/19 12:09:31;;;;;;;3.80;0.52;;;17.00;99.90;;;;;;5036250;28;20169;-74
2023/09/19 12:11:57;;;;;;;2.63;0.40;;;17.30;99.90;;;;;;5032836;28;20193;-74
2023/09/19 12:14:26;;;;;;;4.35;0.80;;;17.40;99.90;;;;;;5032246;28;20189;-74
2023/09/19 12:16:55;;;;;;;4.75;0.77;;;17.40;99.90;;;;;;5029017;28;20225;-74
2023/09/19 12:19:22;;;;;;;5.28;0.95;;;17.30;99.90;;;;;;5032261;28;20238;-74
2023/09/19 12:22:09;;;;;;;3.58;0.77;;;17.40;99.90;;;;;;5032208;28;20186;-74
2023/09/19 12:24:38;;;;;;;1.70;0.60;;;;;;;;;;5031793;28;20193;-74
2023/09/19 12:27:06;;;;;;;4.70;0.60;;;17.60;99.90;;;;;;5031914;28;20295;-75
2023/09/19 12:29:41;;;;;;;1.67;0.70;;;17.60;99.90;;;;;;5033656;28;20655;-77
2023/09/19 12:32:07;;;;;;;1.80;0.43;;;17.60;99.90;;;;;;5048146;28;20264;-76
2023/09/19 12:34:42;;;;;;;1.33;0.60;;;17.60;99.90;;;;;;5031788;28;20265;-75
2023/09/19 12:37:12;;;;;;;3.05;0.73;;;17.90;99.90;;;;;;5017760;28;20205;-78
2023/09/19 12:39:53;;;;;;;3.88;0.77;;;17.90;99.90;;;;;;5036201;28;20177;-75
2023/09/19 12:42:25;;;;;;;2.50;0.77;;;17.60;99.90;;;;;;5031810;28;20260;-77
2023/09/19 12:44:56;;;;;;;3.25;0.70;;;17.80;99.90;;;;;;5038987;28;20173;-76
2023/09/19 12:47:25;;;;;;;2.28;0.80;;;;;;;;;;5031583;28;20314;-77
2023/09/19 12:50:18;;;;;;;2.65;0.82;;;18.10;99.90;;;;;;5030056;28;20261;-74
2023/09/19 12:52:51;;;;;;;2.05;0.50;;;17.90;99.90;;;;;;5022658;28;20186;-77
2023/09/19 12:55:37;;;;;;;2.67;0.52;;;17.80;99.90;;;;;;5013967;28;20202;-75
2023/09/19 12:58:06;;;;;;;1.50;0.40;;;17.70;99.90;;;;;;5022632;28;20169;-74
2023/09/19 13:00:41;;;;;;;1.25;0.55;;;17.80;99.90;;;;;;5031556;28;20174;-75
2023/09/19 13:03:25;;;;;;;3.65;0.50;;;18.20;99.90;;;;;;5031548;28;20682;-75
2023/09/19 13:06:00;;;;;;;1.90;0.68;;;18.20;99.90;;;;;;5031720;28;20178;-74
2023/09/19 13:08:26;;;;;;;3.30;0.85;;;18.20;99.90;;;;;;5031002;28;20180;-76
2023/09/19 13:11:12;;;;;;;3.25;0.55;;;18.40;99.90;;;;;;5046541;28;20186;-74
2023/09/19 13:13:53;;;;;;;6.85;1.20;;;18.40;99.90;;;;;;5015543;28;20210;-76
2023/09/19 13:16:21;;;;;;;6.32;1.27;;;18.30;99.90;;;;;;5021138;28;20233;-76